createdAt,value
2019-03-21T00:00:03.460Z,69.64
2019-03-21T00:02:37.908Z,69.08
2019-03-21T00:05:12.518Z,68.54
2019-03-21T00:07:44.570Z,68.24
2019-03-21T00:10:44.261Z,67.89
2019-03-21T00:13:17.560Z,67.96
2019-03-21T00:15:49.595Z,67.19
2019-03-21T00:18:23.529Z,67.55
2019-03-21T00:20:57.539Z,67.78
2019-03-21T00:23:29.896Z,67.75
2019-03-21T00:26:02.003Z,68.49
2019-03-21T00:28:37.213Z,68.93
2019-03-21T00:31:11.708Z,68.35
2019-03-21T00:33:46.844Z,68.03
2019-03-21T00:36:19.677Z,68.03
2019-03-21T00:38:52.635Z,67.97
2019-03-21T00:41:25.605Z,67.75
2019-03-21T00:43:59.087Z,67.62
2019-03-21T00:46:32.828Z,67.62
2019-03-21T00:49:06.498Z,67.51
2019-03-21T00:51:42.405Z,67.55
2019-03-21T00:54:16.730Z,67.57
2019-03-21T00:56:49.697Z,67.54
2019-03-21T00:59:22.925Z,67.62
2019-03-21T01:01:58.450Z,67.56
2019-03-21T01:04:34.221Z,68.21
2019-03-21T01:07:08.002Z,68.37
2019-03-21T01:09:41.226Z,69.42
2019-03-21T01:12:13.971Z,70.04
2019-03-21T01:14:46.878Z,70.33
2019-03-21T01:17:19.881Z,69.89
2019-03-21T01:19:53.012Z,69.37
2019-03-21T01:22:26.327Z,69.77
2019-03-21T01:24:59.842Z,69.92
2019-03-21T01:27:31.875Z,69.84
2019-03-21T01:30:10.360Z,69.37
2019-03-21T01:32:43.936Z,69.24
2019-03-21T01:35:18.594Z,69.57
2019-03-21T01:37:52.831Z,69.37
2019-03-21T01:40:26.712Z,69.42
2019-03-21T01:43:00.846Z,69.06
2019-03-21T01:45:34.979Z,68.76
2019-03-21T01:48:07.945Z,69.10
2019-03-21T01:50:41.004Z,69.60
2019-03-21T01:53:14.322Z,69.90
2019-03-21T01:55:46.095Z,69.67
2019-03-21T01:58:21.179Z,69.84
2019-03-21T02:00:54.480Z,69.78
2019-03-21T02:03:28.965Z,69.94
2019-03-21T02:06:01.234Z,70.14
2019-03-21T02:08:32.983Z,70.46
2019-03-21T02:11:05.047Z,69.91
2019-03-21T02:13:39.560Z,69.70
2019-03-21T02:16:11.981Z,69.18
2019-03-21T02:18:44.305Z,69.22
2019-03-21T02:21:17.139Z,69.28
2019-03-21T02:23:49.103Z,69.00
2019-03-21T02:26:23.220Z,68.80
2019-03-21T02:28:57.031Z,68.90
2019-03-21T02:31:31.058Z,68.96
2019-03-21T02:34:05.078Z,68.67
2019-03-21T02:36:39.117Z,68.85
2019-03-21T02:39:11.320Z,68.92
2019-03-21T02:41:45.158Z,69.02
2019-03-21T02:44:17.279Z,69.13
2019-03-21T02:46:50.086Z,69.26
2019-03-21T02:49:22.261Z,69.28
2019-03-21T02:51:55.513Z,69.44
2019-03-21T02:54:27.281Z,68.90
2019-03-21T02:56:59.401Z,68.69
2019-03-21T02:59:32.189Z,68.57
2019-03-21T03:02:06.246Z,68.76
2019-03-21T03:04:39.974Z,68.81
2019-03-21T03:07:12.425Z,68.37
2019-03-21T03:09:44.353Z,68.57
2019-03-21T03:12:17.347Z,68.58
2019-03-21T03:14:51.608Z,68.65
2019-03-21T03:17:26.279Z,69.76
2019-03-21T03:20:00.709Z,70.36
2019-03-21T03:22:34.600Z,70.23
2019-03-21T03:25:07.266Z,69.82
2019-03-21T03:27:41.305Z,69.53
2019-03-21T03:30:17.615Z,69.67
2019-03-21T03:32:51.271Z,69.61
2019-03-21T03:35:24.508Z,69.46
2019-03-21T03:38:05.882Z,69.27
2019-03-21T03:41:05.739Z,68.99
2019-03-21T03:44:07.730Z,68.97
2019-03-21T03:47:05.689Z,69.34
2019-03-21T03:49:52.405Z,69.18
2019-03-21T03:52:50.955Z,68.85
2019-03-21T03:55:55.158Z,68.72
2019-03-21T03:58:57.215Z,68.33
2019-03-21T04:01:59.800Z,68.58
2019-03-21T04:04:59.747Z,68.58
2019-03-21T04:07:57.689Z,68.74
2019-03-21T04:10:55.480Z,68.87
2019-03-21T04:13:55.363Z,69.05
2019-03-21T04:16:53.766Z,69.18
2019-03-21T04:19:59.330Z,69.25
2019-03-21T04:22:57.016Z,69.47
2019-03-21T04:26:10.285Z,69.35
2019-03-21T04:29:07.854Z,69.46
2019-03-21T04:32:10.122Z,69.36
2019-03-21T04:35:00.037Z,69.58
2019-03-21T04:37:36.780Z,69.46
2019-03-21T04:40:11.557Z,69.53
2019-03-21T04:42:46.543Z,69.71
2019-03-21T04:45:21.144Z,69.44
2019-03-21T04:47:55.487Z,69.13
2019-03-21T04:50:30.556Z,68.89
2019-03-21T04:53:02.554Z,68.86
2019-03-21T04:55:34.302Z,68.75
2019-03-21T04:58:08.822Z,68.74
2019-03-21T05:00:41.819Z,68.59
2019-03-21T05:03:15.307Z,68.40
2019-03-21T05:05:49.119Z,68.69
2019-03-21T05:08:23.099Z,68.88
2019-03-21T05:10:56.860Z,69.25
2019-03-21T05:13:29.011Z,69.74
2019-03-21T05:16:02.327Z,69.91
2019-03-21T05:18:36.927Z,69.86
2019-03-21T05:21:11.883Z,69.77
2019-03-21T05:23:45.053Z,69.96
2019-03-21T05:26:19.077Z,70.10
2019-03-21T05:28:51.054Z,69.83
2019-03-21T05:31:27.340Z,69.96
2019-03-21T05:34:00.073Z,69.84
2019-03-21T05:36:32.009Z,70.25
2019-03-21T05:39:07.034Z,70.80
2019-03-21T05:41:41.325Z,70.56
2019-03-21T05:44:22.818Z,70.43
2019-03-21T05:46:57.116Z,70.26
2019-03-21T05:49:29.251Z,69.68
2019-03-21T05:52:02.062Z,69.42
2019-03-21T05:54:36.223Z,70.62
2019-03-21T05:57:08.107Z,70.48
2019-03-21T05:59:41.080Z,70.67
2019-03-21T06:02:14.761Z,70.86
2019-03-21T06:04:49.295Z,71.04
2019-03-21T06:07:48.521Z,71.43
2019-03-21T06:10:20.374Z,71.63
2019-03-21T06:12:52.214Z,71.32
2019-03-21T06:15:28.659Z,70.67
2019-03-21T06:18:36.686Z,70.48
2019-03-21T06:21:37.788Z,70.82
2019-03-21T06:24:35.482Z,70.17
2019-03-21T06:27:15.608Z,69.85
2019-03-21T06:29:50.379Z,71.48
2019-03-21T06:32:23.207Z,71.57
2019-03-21T06:34:57.357Z,70.98
2019-03-21T06:37:29.346Z,71.20
2019-03-21T06:40:01.961Z,71.63
2019-03-21T06:42:39.067Z,71.36
2019-03-21T06:45:11.496Z,70.87
2019-03-21T06:47:44.273Z,70.24
2019-03-21T06:50:17.237Z,69.61
2019-03-21T06:52:50.238Z,68.99
2019-03-21T06:55:23.411Z,68.63
2019-03-21T06:57:57.224Z,68.29
2019-03-21T07:00:29.424Z,68.47
2019-03-21T07:03:02.681Z,68.34
2019-03-21T07:05:35.444Z,68.05
2019-03-21T07:08:08.325Z,67.90
2019-03-21T07:10:41.683Z,67.65
2019-03-21T07:13:16.481Z,68.04
2019-03-21T07:15:50.413Z,68.04
2019-03-21T07:18:23.673Z,67.95
2019-03-21T07:20:57.795Z,67.95
2019-03-21T07:23:34.270Z,67.60
2019-03-21T07:26:08.607Z,67.39
2019-03-21T07:28:42.065Z,67.53
2019-03-21T07:31:16.309Z,67.26
2019-03-21T07:33:50.715Z,66.34
2019-03-21T07:36:26.092Z,67.15
2019-03-21T07:38:57.485Z,66.87
2019-03-21T07:41:30.530Z,66.96
2019-03-21T07:44:02.572Z,66.57
2019-03-21T07:46:35.679Z,66.05
2019-03-21T07:49:09.817Z,66.20
2019-03-21T07:51:41.919Z,65.67
2019-03-21T07:54:14.684Z,64.00
2019-03-21T07:56:47.646Z,63.14
2019-03-21T07:59:20.630Z,63.18
2019-03-21T08:01:52.538Z,62.81
2019-03-21T08:04:26.659Z,63.89
2019-03-21T08:06:58.541Z,65.64
2019-03-21T08:09:31.963Z,65.70
2019-03-21T08:12:06.104Z,64.03
2019-03-21T08:14:38.830Z,63.68
2019-03-21T08:17:11.830Z,63.42
2019-03-21T08:19:43.792Z,62.74
2019-03-21T08:22:16.892Z,63.18
2019-03-21T08:24:48.657Z,63.57
2019-03-21T08:27:20.881Z,61.90
2019-03-21T08:29:53.829Z,59.41
2019-03-21T08:32:27.861Z,60.22
2019-03-21T08:35:01.592Z,58.43
2019-03-21T08:37:38.024Z,59.71
2019-03-21T08:40:12.183Z,59.48
2019-03-21T08:42:46.531Z,54.15
2019-03-21T08:45:20.777Z,54.30
2019-03-21T08:47:55.251Z,52.60
2019-03-21T08:50:29.805Z,51.84
2019-03-21T08:53:02.097Z,51.80
2019-03-21T08:55:33.926Z,53.57
2019-03-21T08:58:05.907Z,52.58
2019-03-21T09:00:37.966Z,51.53
2019-03-21T09:03:11.973Z,50.02
2019-03-21T09:05:44.883Z,50.88
2019-03-21T09:08:19.130Z,50.41
2019-03-21T09:10:51.108Z,49.51
2019-03-21T09:13:24.146Z,49.39
2019-03-21T09:15:57.585Z,50.15
2019-03-21T09:18:30.939Z,50.16
2019-03-21T09:21:02.913Z,48.86
2019-03-21T09:23:35.921Z,47.60
2019-03-21T09:26:09.181Z,47.95
2019-03-21T09:28:42.180Z,48.32
2019-03-21T09:31:15.085Z,47.90
2019-03-21T09:33:49.142Z,47.42
2019-03-21T09:36:23.139Z,46.81
2019-03-21T09:38:56.186Z,48.37
2019-03-21T09:41:27.942Z,47.27
2019-03-21T09:44:00.731Z,47.30
2019-03-21T09:46:34.752Z,46.16
2019-03-21T09:49:09.231Z,45.45
2019-03-21T09:51:43.230Z,44.21
2019-03-21T09:54:16.781Z,40.77
2019-03-21T09:56:52.793Z,41.28
2019-03-21T09:59:25.593Z,41.69
2019-03-21T10:01:58.211Z,41.00
2019-03-21T10:04:31.891Z,41.06
2019-03-21T10:07:07.074Z,41.14
2019-03-21T10:09:40.088Z,41.05
2019-03-21T10:12:13.284Z,39.15
2019-03-21T10:14:48.883Z,40.03
2019-03-21T10:17:21.685Z,39.84
2019-03-21T10:19:55.434Z,40.91
2019-03-21T10:22:27.185Z,40.86
2019-03-21T10:24:59.189Z,41.62
2019-03-21T10:27:33.442Z,43.84
2019-03-21T10:30:08.363Z,39.65
2019-03-21T10:32:41.522Z,38.91
2019-03-21T10:35:14.213Z,38.63
2019-03-21T10:37:48.917Z,36.86
2019-03-21T10:40:23.395Z,37.61
2019-03-21T10:42:57.416Z,38.39
2019-03-21T10:45:29.244Z,36.03
2019-03-21T10:48:02.833Z,35.18
2019-03-21T10:50:37.721Z,35.50
2019-03-21T10:53:11.498Z,34.13
2019-03-21T10:55:44.963Z,34.92
2019-03-21T10:58:17.489Z,33.12
2019-03-21T11:00:53.214Z,33.19
2019-03-21T11:03:27.072Z,33.56
2019-03-21T11:06:01.559Z,33.14
2019-03-21T11:08:35.516Z,34.73
2019-03-21T11:11:09.310Z,33.56
2019-03-21T11:13:41.459Z,34.89
2019-03-21T11:16:14.643Z,35.07
2019-03-21T11:18:47.582Z,34.05
2019-03-21T11:21:20.603Z,33.14
2019-03-21T11:23:56.536Z,30.06
2019-03-21T11:26:29.453Z,33.39
2019-03-21T11:29:02.357Z,32.21
2019-03-21T11:31:36.729Z,31.88
2019-03-21T11:34:08.472Z,31.60
2019-03-21T11:36:41.082Z,32.61
2019-03-21T11:39:13.627Z,32.25
2019-03-21T11:41:45.537Z,30.77
2019-03-21T11:44:17.671Z,30.41
2019-03-21T11:46:50.709Z,32.35
2019-03-21T11:49:23.682Z,32.02
2019-03-21T11:51:58.249Z,32.15
2019-03-21T11:54:30.300Z,32.32
2019-03-21T11:57:03.018Z,30.56
2019-03-21T11:59:46.469Z,29.89
2019-03-21T12:02:09.745Z,32.06
2019-03-21T12:04:41.712Z,33.42
2019-03-21T12:07:14.672Z,33.10
2019-03-21T12:09:47.900Z,32.84
2019-03-21T12:12:19.945Z,32.36
2019-03-21T12:14:51.679Z,32.45
2019-03-21T12:17:24.333Z,31.59
2019-03-21T12:19:56.997Z,31.14
2019-03-21T12:22:30.970Z,30.70
2019-03-21T12:25:05.162Z,29.73
2019-03-21T12:27:41.414Z,31.96
2019-03-21T12:30:19.308Z,30.89
2019-03-21T12:32:54.219Z,30.00
2019-03-21T12:35:28.577Z,31.27
2019-03-21T12:38:02.533Z,30.18
2019-03-21T12:40:36.129Z,30.12
2019-03-21T12:43:09.113Z,30.78
2019-03-21T12:45:43.766Z,30.39
2019-03-21T12:48:18.875Z,29.54
2019-03-21T12:50:51.910Z,29.54
2019-03-21T12:53:24.262Z,30.55
2019-03-21T12:55:58.229Z,30.18
2019-03-21T12:58:34.505Z,27.43
2019-03-21T13:01:09.143Z,29.79
2019-03-21T13:03:42.098Z,30.61
2019-03-21T13:06:14.895Z,29.63
2019-03-21T13:08:48.105Z,30.58
2019-03-21T13:11:21.065Z,30.38
2019-03-21T13:13:54.035Z,30.31
2019-03-21T13:16:27.304Z,30.66
2019-03-21T13:18:59.053Z,30.26
2019-03-21T13:21:34.178Z,29.42
2019-03-21T13:24:05.991Z,30.25
2019-03-21T13:26:39.187Z,29.39
2019-03-21T13:29:12.163Z,30.32
2019-03-21T13:31:45.273Z,30.10
2019-03-21T13:34:19.633Z,28.26
2019-03-21T13:36:53.290Z,27.96
2019-03-21T13:39:27.292Z,27.58
2019-03-21T13:42:00.754Z,27.91
2019-03-21T13:44:33.701Z,28.59
2019-03-21T13:47:06.216Z,28.56
2019-03-21T13:49:41.012Z,29.17
2019-03-21T13:52:15.927Z,28.79
2019-03-21T13:54:48.928Z,27.11
2019-03-21T13:57:21.680Z,28.26
2019-03-21T13:59:57.081Z,27.33
2019-03-21T14:02:30.100Z,28.09
2019-03-21T14:05:02.516Z,27.33
2019-03-21T14:07:38.639Z,26.53
2019-03-21T14:10:13.912Z,27.09
2019-03-21T14:12:46.535Z,25.62
2019-03-21T14:15:19.306Z,27.02
2019-03-21T14:17:53.393Z,26.39
2019-03-21T14:20:26.569Z,27.60
2019-03-21T14:22:59.373Z,26.93
2019-03-21T14:25:31.398Z,25.36
2019-03-21T14:28:05.157Z,24.65
2019-03-21T14:30:39.544Z,25.80
2019-03-21T14:33:11.575Z,26.49
2019-03-21T14:35:43.520Z,26.86
2019-03-21T14:38:25.812Z,25.54
2019-03-21T14:40:51.667Z,26.26
2019-03-21T14:43:25.599Z,25.15
2019-03-21T14:45:57.357Z,25.08
2019-03-21T14:48:29.416Z,25.48
2019-03-21T14:51:02.966Z,25.49
2019-03-21T14:53:36.811Z,26.25
2019-03-21T14:56:09.410Z,25.59
2019-03-21T14:58:43.623Z,24.46
2019-03-21T15:01:15.376Z,25.11
2019-03-21T15:03:49.346Z,24.81
2019-03-21T15:06:25.559Z,24.82
2019-03-21T15:08:57.601Z,25.66
2019-03-21T15:11:30.939Z,25.67
2019-03-21T15:14:02.809Z,25.45
2019-03-21T15:16:35.831Z,25.50
2019-03-21T15:19:10.780Z,25.95
2019-03-21T15:21:44.997Z,24.28
2019-03-21T15:24:18.624Z,25.73
2019-03-21T15:26:51.488Z,25.11
2019-03-21T15:29:23.807Z,25.32
2019-03-21T15:31:57.934Z,24.81
2019-03-21T15:34:32.728Z,23.69
2019-03-21T15:37:05.762Z,24.84
2019-03-21T15:39:37.951Z,25.57
2019-03-21T15:42:11.730Z,24.03
2019-03-21T15:44:45.608Z,25.07
2019-03-21T15:47:18.011Z,23.73
2019-03-21T15:49:51.492Z,25.44
2019-03-21T15:52:23.810Z,23.85
2019-03-21T15:54:56.785Z,24.16
2019-03-21T15:57:31.928Z,25.12
2019-03-21T16:00:06.614Z,24.36
2019-03-21T16:02:40.855Z,25.09
2019-03-21T16:05:14.976Z,23.76
2019-03-21T16:07:48.998Z,24.70
2019-03-21T16:10:22.290Z,23.56
2019-03-21T16:12:55.122Z,24.14
2019-03-21T16:15:27.309Z,24.14
2019-03-21T16:17:59.807Z,23.01
2019-03-21T16:20:34.029Z,23.01
2019-03-21T16:23:06.229Z,23.55
2019-03-21T16:25:39.429Z,22.83
2019-03-21T16:28:12.026Z,23.10
2019-03-21T16:30:46.451Z,24.26
2019-03-21T16:33:21.154Z,24.58
2019-03-21T16:35:54.972Z,24.52
2019-03-21T16:38:27.664Z,25.51
2019-03-21T16:44:17.989Z,32.44
2019-03-21T16:46:52.254Z,32.89
2019-03-21T16:49:28.818Z,35.41
2019-03-21T16:52:02.191Z,35.91
2019-03-21T16:54:34.143Z,37.39
2019-03-21T16:57:07.457Z,38.46
2019-03-21T16:59:42.759Z,38.74
2019-03-21T17:02:16.891Z,40.01
2019-03-21T17:04:51.105Z,39.63
2019-03-21T17:07:24.409Z,41.80
2019-03-21T17:09:57.972Z,41.97
2019-03-21T17:12:30.556Z,42.40
2019-03-21T17:15:02.686Z,44.52
2019-03-21T17:17:38.977Z,42.66
2019-03-21T17:20:12.967Z,42.59
2019-03-21T17:22:45.224Z,42.80
2019-03-21T17:25:18.388Z,43.10
2019-03-21T17:27:54.716Z,44.06
2019-03-21T17:30:28.282Z,44.34
2019-03-21T17:33:02.383Z,44.70
2019-03-21T17:35:34.241Z,44.41
2019-03-21T17:44:44.147Z,44.63
2019-03-21T17:47:18.800Z,45.44
2019-03-21T17:49:52.023Z,46.66
2019-03-21T17:52:26.300Z,46.08
2019-03-21T17:55:00.461Z,46.64
2019-03-21T17:57:35.031Z,45.55
2019-03-21T18:00:13.025Z,45.49
2019-03-21T18:02:46.820Z,46.21
2019-03-21T18:05:55.517Z,45.74
2019-03-21T18:08:30.191Z,45.65
2019-03-21T18:11:03.059Z,45.78
2019-03-21T18:13:36.951Z,46.47
2019-03-21T18:16:10.405Z,47.46
2019-03-21T18:18:42.503Z,48.35
2019-03-21T18:21:15.483Z,48.21
2019-03-21T18:23:48.726Z,48.27
2019-03-21T18:26:21.971Z,48.47
2019-03-21T18:28:54.577Z,48.81
2019-03-21T18:31:27.485Z,48.91
2019-03-21T18:34:00.703Z,48.90
2019-03-21T18:36:33.672Z,49.02
2019-03-21T18:39:08.278Z,49.00
2019-03-21T18:41:42.741Z,48.48
2019-03-21T18:44:15.547Z,47.77
2019-03-21T18:46:48.572Z,47.23
2019-03-21T18:49:23.490Z,47.67
2019-03-21T18:51:56.606Z,47.23
2019-03-21T18:54:30.881Z,47.78
2019-03-21T18:57:04.465Z,47.45
2019-03-21T18:59:36.662Z,48.09
2019-03-21T19:02:10.753Z,47.43
2019-03-21T19:04:45.948Z,47.71
2019-03-21T19:07:19.568Z,48.27
2019-03-21T19:09:52.627Z,48.66
2019-03-21T19:12:25.238Z,48.75
2019-03-21T19:14:59.562Z,48.76
2019-03-21T19:17:37.877Z,48.47
2019-03-21T19:20:10.644Z,48.17
2019-03-21T19:22:42.707Z,48.34
2019-03-21T19:25:19.605Z,48.78
2019-03-21T19:27:52.844Z,49.15
2019-03-21T19:30:25.383Z,49.51
2019-03-21T19:32:59.091Z,49.73
2019-03-21T19:35:33.636Z,49.83
2019-03-21T19:38:07.704Z,49.57
2019-03-21T19:40:39.980Z,49.67
2019-03-21T19:43:12.417Z,49.63
2019-03-21T19:45:45.853Z,49.66
2019-03-21T19:48:18.069Z,49.43
2019-03-21T19:50:51.975Z,49.55
2019-03-21T19:53:24.962Z,49.69
2019-03-21T19:56:09.067Z,49.63
2019-03-21T19:58:43.041Z,49.67
2019-03-21T20:01:15.806Z,49.90
2019-03-21T20:03:47.982Z,50.12
2019-03-21T20:06:22.810Z,50.29
2019-03-21T20:08:58.614Z,50.53
2019-03-21T20:11:34.637Z,50.00
2019-03-21T20:14:09.730Z,50.84
2019-03-21T20:16:42.130Z,50.95
2019-03-21T20:19:16.052Z,51.18
2019-03-21T20:21:48.446Z,50.99
2019-03-21T20:24:23.227Z,51.53
2019-03-21T20:26:55.151Z,51.45
2019-03-21T20:29:27.480Z,51.37
2019-03-21T20:32:01.172Z,51.34
2019-03-21T20:34:33.190Z,51.46
2019-03-21T20:37:06.297Z,51.39
2019-03-21T20:39:39.237Z,51.39
2019-03-21T20:42:12.481Z,51.06
2019-03-21T20:44:45.143Z,50.96
2019-03-21T20:47:18.179Z,51.92
2019-03-21T20:49:51.565Z,52.02
2019-03-21T20:52:26.299Z,51.83
2019-03-21T20:55:00.406Z,51.65
2019-03-21T20:57:32.179Z,51.61
2019-03-21T21:00:07.609Z,51.47
2019-03-21T21:02:42.465Z,51.60
2019-03-21T21:05:15.616Z,51.47
2019-03-21T21:07:49.028Z,51.78
2019-03-21T21:10:21.863Z,52.25
2019-03-21T21:12:54.485Z,52.50
2019-03-21T21:15:26.988Z,52.48
2019-03-21T21:18:00.246Z,51.90
2019-03-21T21:20:33.484Z,52.99
2019-03-21T21:23:06.368Z,54.11
2019-03-21T21:25:40.226Z,54.21
2019-03-21T21:28:13.918Z,53.90
2019-03-21T21:30:47.704Z,54.20
2019-03-21T21:33:22.822Z,54.26
2019-03-21T21:36:22.865Z,53.85
2019-03-21T21:38:55.950Z,53.72
2019-03-21T21:41:27.773Z,53.82
2019-03-21T21:44:00.522Z,53.37
2019-03-21T21:46:33.938Z,53.81
2019-03-21T21:49:07.533Z,54.23
2019-03-21T21:51:41.432Z,53.98
2019-03-21T21:54:28.161Z,54.05
2019-03-21T21:57:00.775Z,54.08
2019-03-21T21:59:32.586Z,53.59
2019-03-21T22:02:06.704Z,55.24
2019-03-21T22:04:40.763Z,56.41
2019-03-21T22:07:16.536Z,56.19
2019-03-21T22:09:48.869Z,55.60
2019-03-21T22:12:21.670Z,55.24
2019-03-21T22:14:53.824Z,54.90
2019-03-21T22:17:27.857Z,54.74
2019-03-21T22:20:02.436Z,55.72
2019-03-21T22:22:42.713Z,55.60
2019-03-21T22:25:16.698Z,55.54
2019-03-21T22:27:48.429Z,55.57
2019-03-21T22:30:21.727Z,55.24
2019-03-21T22:32:56.333Z,54.84
2019-03-21T22:35:30.768Z,55.05
2019-03-21T22:38:03.931Z,55.78
2019-03-21T22:40:36.940Z,55.82
2019-03-21T22:43:10.000Z,56.09
2019-03-21T22:45:44.556Z,56.46
2019-03-21T22:48:19.100Z,56.63
2019-03-21T22:50:51.843Z,56.63
2019-03-21T22:53:24.857Z,56.98
2019-03-21T22:55:56.818Z,56.68
2019-03-21T22:58:32.012Z,56.45
2019-03-21T23:01:04.125Z,56.43
2019-03-21T23:03:37.960Z,56.49
2019-03-21T23:06:09.745Z,56.78
2019-03-21T23:08:43.652Z,56.81
2019-03-21T23:11:15.785Z,56.79
2019-03-21T23:14:19.730Z,57.13
2019-03-21T23:16:52.456Z,57.23
2019-03-21T23:19:27.009Z,57.04
2019-03-21T23:22:00.849Z,58.12
2019-03-21T23:24:34.271Z,58.46
2019-03-21T23:27:07.002Z,59.22
2019-03-21T23:29:38.974Z,59.59
2019-03-21T23:32:12.845Z,59.86
2019-03-21T23:34:48.296Z,59.34
2019-03-21T23:37:22.705Z,58.84
2019-03-21T23:39:56.173Z,58.39
2019-03-21T23:42:31.111Z,58.32
2019-03-21T23:45:03.569Z,58.08
2019-03-21T23:47:40.131Z,57.94
2019-03-21T23:50:14.138Z,58.16
2019-03-21T23:52:47.280Z,58.19
2019-03-21T23:55:21.564Z,58.03
2019-03-21T23:57:58.248Z,58.17
